sensor_id;sensor_type;location;lat;lon;timestamp;P1;durP1;ratioP1;P2;durP2;ratioP2
75427;SDS011;64008;55.612;37.698;2023-01-15T00:00:57;5.88;;;2.10;;
75427;SDS011;64008;55.612;37.698;2023-01-15T00:03:22;9.25;;;2.40;;
75427;SDS011;64008;55.612;37.698;2023-01-15T00:05:48;5.18;;;2.47;;
75427;SDS011;64008;55.612;37.698;2023-01-15T00:08:13;6.45;;;2.08;;
75427;SDS011;64008;55.612;37.698;2023-01-15T00:10:39;5.57;;;2.22;;
75427;SDS011;64008;55.612;37.698;2023-01-15T00:13:04;7.60;;;3.10;;
75427;SDS011;64008;55.612;37.698;2023-01-15T00:15:30;7.30;;;2.95;;
75427;SDS011;64008;55.612;37.698;2023-01-15T00:17:55;10.45;;;3.50;;
75427;SDS011;64008;55.612;37.698;2023-01-15T00:20:21;7.78;;;3.20;;
75427;SDS011;64008;55.612;37.698;2023-01-15T00:22:46;10.93;;;3.33;;
75427;SDS011;64008;55.612;37.698;2023-01-15T00:25:12;9.45;;;2.85;;
75427;SDS011;64008;55.612;37.698;2023-01-15T00:27:56;8.88;;;3.33;;
75427;SDS011;64008;55.612;37.698;2023-01-15T00:30:22;10.15;;;3.17;;
75427;SDS011;64008;55.612;37.698;2023-01-15T00:32:49;8.57;;;3.08;;
75427;SDS011;64008;55.612;37.698;2023-01-15T00:35:16;9.77;;;3.20;;
75427;SDS011;64008;55.612;37.698;2023-01-15T00:37:43;12.35;;;3.58;;
75427;SDS011;64008;55.612;37.698;2023-01-15T00:40:09;10.80;;;4.25;;
75427;SDS011;64008;55.612;37.698;2023-01-15T00:42:36;10.40;;;2.80;;
75427;SDS011;64008;55.612;37.698;2023-01-15T00:45:02;8.48;;;3.28;;
75427;SDS011;64008;55.612;37.698;2023-01-15T00:47:34;9.38;;;2.72;;
75427;SDS011;64008;55.612;37.698;2023-01-15T00:50:04;9.50;;;3.78;;
75427;SDS011;64008;55.612;37.698;2023-01-15T00:52:31;10.27;;;2.95;;
75427;SDS011;64008;55.612;37.698;2023-01-15T00:54:56;10.05;;;3.20;;
75427;SDS011;64008;55.612;37.698;2023-01-15T00:57:22;8.30;;;2.97;;
75427;SDS011;64008;55.612;37.698;2023-01-15T00:59:48;7.70;;;3.13;;
75427;SDS011;64008;55.612;37.698;2023-01-15T01:02:13;9.63;;;3.38;;
75427;SDS011;64008;55.612;37.698;2023-01-15T01:04:39;9.07;;;3.30;;
75427;SDS011;64008;55.612;37.698;2023-01-15T01:07:04;9.43;;;3.10;;
75427;SDS011;64008;55.612;37.698;2023-01-15T01:09:30;7.90;;;3.00;;
75427;SDS011;64008;55.612;37.698;2023-01-15T01:11:55;7.60;;;3.30;;
75427;SDS011;64008;55.612;37.698;2023-01-15T01:14:21;8.38;;;3.30;;
75427;SDS011;64008;55.612;37.698;2023-01-15T01:16:46;11.30;;;3.38;;
75427;SDS011;64008;55.612;37.698;2023-01-15T01:19:16;7.13;;;3.10;;
75427;SDS011;64008;55.612;37.698;2023-01-15T01:21:44;7.63;;;3.20;;
75427;SDS011;64008;55.612;37.698;2023-01-15T01:24:11;8.20;;;3.10;;
75427;SDS011;64008;55.612;37.698;2023-01-15T01:26:38;9.85;;;3.47;;
75427;SDS011;64008;55.612;37.698;2023-01-15T01:29:04;7.38;;;3.13;;
75427;SDS011;64008;55.612;37.698;2023-01-15T01:31:29;7.45;;;3.35;;
75427;SDS011;64008;55.612;37.698;2023-01-15T01:33:56;7.72;;;3.13;;
75427;SDS011;64008;55.612;37.698;2023-01-15T01:36:30;8.45;;;3.63;;
75427;SDS011;64008;55.612;37.698;2023-01-15T01:38:56;9.77;;;3.15;;
75427;SDS011;64008;55.612;37.698;2023-01-15T01:41:23;9.23;;;3.58;;
75427;SDS011;64008;55.612;37.698;2023-01-15T01:44:00;8.20;;;3.20;;
75427;SDS011;64008;55.612;37.698;2023-01-15T01:46:29;7.95;;;3.25;;
75427;SDS011;64008;55.612;37.698;2023-01-15T01:49:03;9.80;;;3.17;;
75427;SDS011;64008;55.612;37.698;2023-01-15T01:51:39;11.75;;;3.47;;
75427;SDS011;64008;55.612;37.698;2023-01-15T01:54:08;7.85;;;3.60;;
75427;SDS011;64008;55.612;37.698;2023-01-15T01:56:37;12.05;;;3.65;;
75427;SDS011;64008;55.612;37.698;2023-01-15T01:59:03;10.23;;;3.78;;
75427;SDS011;64008;55.612;37.698;2023-01-15T02:01:31;7.65;;;3.00;;
75427;SDS011;64008;55.612;37.698;2023-01-15T02:03:56;9.90;;;3.22;;
75427;SDS011;64008;55.612;37.698;2023-01-15T02:06:23;7.28;;;3.20;;
75427;SDS011;64008;55.612;37.698;2023-01-15T02:08:50;11.57;;;3.33;;
75427;SDS011;64008;55.612;37.698;2023-01-15T02:11:18;9.73;;;3.72;;
75427;SDS011;64008;55.612;37.698;2023-01-15T02:13:49;11.38;;;3.15;;
75427;SDS011;64008;55.612;37.698;2023-01-15T02:16:22;6.60;;;2.85;;
75427;SDS011;64008;55.612;37.698;2023-01-15T02:24:48;9.85;;;3.83;;
75427;SDS011;64008;55.612;37.698;2023-01-15T02:27:34;11.60;;;3.75;;
75427;SDS011;64008;55.612;37.698;2023-01-15T02:30:07;9.90;;;3.60;;
75427;SDS011;64008;55.612;37.698;2023-01-15T02:32:46;10.48;;;3.40;;
75427;SDS011;64008;55.612;37.698;2023-01-15T02:35:22;9.13;;;3.20;;
75427;SDS011;64008;55.612;37.698;2023-01-15T02:37:50;10.60;;;3.67;;
75427;SDS011;64008;55.612;37.698;2023-01-15T02:40:18;7.18;;;3.10;;
75427;SDS011;64008;55.612;37.698;2023-01-15T02:42:46;11.07;;;3.50;;
75427;SDS011;64008;55.612;37.698;2023-01-15T02:45:15;9.50;;;3.15;;
75427;SDS011;64008;55.612;37.698;2023-01-15T02:47:48;11.02;;;3.63;;
75427;SDS011;64008;55.612;37.698;2023-01-15T02:50:16;9.52;;;3.42;;
75427;SDS011;64008;55.612;37.698;2023-01-15T02:52:48;9.07;;;3.45;;
75427;SDS011;64008;55.612;37.698;2023-01-15T02:55:23;13.50;;;3.45;;
75427;SDS011;64008;55.612;37.698;2023-01-15T02:57:54;9.68;;;3.80;;
75427;SDS011;64008;55.612;37.698;2023-01-15T03:00:24;11.20;;;3.45;;
75427;SDS011;64008;55.612;37.698;2023-01-15T03:02:58;10.18;;;3.35;;
75427;SDS011;64008;55.612;37.698;2023-01-15T03:05:31;10.40;;;3.05;;
75427;SDS011;64008;55.612;37.698;2023-01-15T03:13:26;8.18;;;3.03;;
75427;SDS011;64008;55.612;37.698;2023-01-15T03:16:04;19.00;;;7.03;;
75427;SDS011;64008;55.612;37.698;2023-01-15T03:24:31;12.40;;;3.83;;
75427;SDS011;64008;55.612;37.698;2023-01-15T03:27:14;8.70;;;3.30;;
75427;SDS011;64008;55.612;37.698;2023-01-15T03:29:47;7.28;;;3.30;;
75427;SDS011;64008;55.612;37.698;2023-01-15T03:32:15;10.10;;;3.67;;
75427;SDS011;64008;55.612;37.698;2023-01-15T03:34:48;11.30;;;3.65;;
75427;SDS011;64008;55.612;37.698;2023-01-15T03:37:15;11.88;;;4.05;;
75427;SDS011;64008;55.612;37.698;2023-01-15T03:39:42;11.02;;;3.42;;
75427;SDS011;64008;55.612;37.698;2023-01-15T03:44:54;11.70;;;3.75;;
75427;SDS011;64008;55.612;37.698;2023-01-15T03:55:31;13.70;;;4.00;;
75427;SDS011;64008;55.612;37.698;2023-01-15T03:58:05;13.75;;;3.70;;
75427;SDS011;64008;55.612;37.698;2023-01-15T04:03:24;9.52;;;3.70;;
75427;SDS011;64008;55.612;37.698;2023-01-15T04:05:50;9.32;;;3.47;;
75427;SDS011;64008;55.612;37.698;2023-01-15T04:08:19;8.48;;;3.67;;
75427;SDS011;64008;55.612;37.698;2023-01-15T04:10:55;11.75;;;4.68;;
75427;SDS011;64008;55.612;37.698;2023-01-15T04:13:22;12.85;;;3.53;;
75427;SDS011;64008;55.612;37.698;2023-01-15T04:15:48;13.82;;;3.65;;
75427;SDS011;64008;55.612;37.698;2023-01-15T04:18:14;14.70;;;3.63;;
75427;SDS011;64008;55.612;37.698;2023-01-15T04:20:40;13.48;;;3.35;;
75427;SDS011;64008;55.612;37.698;2023-01-15T04:23:05;14.48;;;3.17;;
75427;SDS011;64008;55.612;37.698;2023-01-15T04:25:31;18.25;;;4.82;;
75427;SDS011;64008;55.612;37.698;2023-01-15T04:27:56;10.25;;;3.60;;
75427;SDS011;64008;55.612;37.698;2023-01-15T04:30:22;8.32;;;3.63;;
75427;SDS011;64008;55.612;37.698;2023-01-15T04:32:48;10.98;;;3.95;;
75427;SDS011;64008;55.612;37.698;2023-01-15T04:37:40;10.40;;;3.60;;
75427;SDS011;64008;55.612;37.698;2023-01-15T04:40:06;10.55;;;3.65;;
75427;SDS011;64008;55.612;37.698;2023-01-15T04:42:32;10.18;;;4.18;;
75427;SDS011;64008;55.612;37.698;2023-01-15T04:45:16;7.93;;;3.60;;
75427;SDS011;64008;55.612;37.698;2023-01-15T04:47:42;11.60;;;3.55;;
75427;SDS011;64008;55.612;37.698;2023-01-15T04:50:07;16.33;;;4.22;;
75427;SDS011;64008;55.612;37.698;2023-01-15T04:52:34;11.45;;;3.95;;
75427;SDS011;64008;55.612;37.698;2023-01-15T04:55:00;10.90;;;3.85;;
75427;SDS011;64008;55.612;37.698;2023-01-15T04:57:25;12.45;;;3.65;;
75427;SDS011;64008;55.612;37.698;2023-01-15T04:59:51;12.23;;;3.95;;
75427;SDS011;64008;55.612;37.698;2023-01-15T05:02:16;13.60;;;3.78;;
75427;SDS011;64008;55.612;37.698;2023-01-15T05:04:42;14.48;;;4.40;;
75427;SDS011;64008;55.612;37.698;2023-01-15T05:07:08;12.13;;;4.13;;
75427;SDS011;64008;55.612;37.698;2023-01-15T05:09:34;11.70;;;4.55;;
75427;SDS011;64008;55.612;37.698;2023-01-15T05:11:59;11.13;;;3.88;;
75427;SDS011;64008;55.612;37.698;2023-01-15T05:14:25;16.63;;;3.95;;
75427;SDS011;64008;55.612;37.698;2023-01-15T05:16:50;12.95;;;4.15;;
75427;SDS011;64008;55.612;37.698;2023-01-15T05:19:16;12.48;;;4.20;;
75427;SDS011;64008;55.612;37.698;2023-01-15T05:21:42;13.65;;;4.75;;
75427;SDS011;64008;55.612;37.698;2023-01-15T05:24:09;14.80;;;4.18;;
75427;SDS011;64008;55.612;37.698;2023-01-15T05:26:39;12.90;;;3.85;;
75427;SDS011;64008;55.612;37.698;2023-01-15T05:29:05;13.65;;;4.75;;
75427;SDS011;64008;55.612;37.698;2023-01-15T05:31:31;15.45;;;3.83;;
75427;SDS011;64008;55.612;37.698;2023-01-15T05:34:00;14.75;;;4.10;;
75427;SDS011;64008;55.612;37.698;2023-01-15T05:36:29;12.50;;;4.03;;
75427;SDS011;64008;55.612;37.698;2023-01-15T05:38:56;15.70;;;4.60;;
75427;SDS011;64008;55.612;37.698;2023-01-15T05:41:23;13.63;;;4.70;;
75427;SDS011;64008;55.612;37.698;2023-01-15T05:44:08;12.27;;;4.43;;
75427;SDS011;64008;55.612;37.698;2023-01-15T05:46:35;10.27;;;4.10;;
75427;SDS011;64008;55.612;37.698;2023-01-15T05:51:28;12.07;;;3.97;;
75427;SDS011;64008;55.612;37.698;2023-01-15T05:53:55;11.88;;;4.07;;
75427;SDS011;64008;55.612;37.698;2023-01-15T05:56:21;16.95;;;4.72;;
75427;SDS011;64008;55.612;37.698;2023-01-15T05:58:47;13.52;;;4.68;;
75427;SDS011;64008;55.612;37.698;2023-01-15T06:01:13;12.85;;;4.85;;
75427;SDS011;64008;55.612;37.698;2023-01-15T06:06:05;16.45;;;4.47;;
75427;SDS011;64008;55.612;37.698;2023-01-15T06:08:31;14.30;;;3.90;;
75427;SDS011;64008;55.612;37.698;2023-01-15T06:10:57;11.73;;;3.95;;
75427;SDS011;64008;55.612;37.698;2023-01-15T06:13:23;12.98;;;3.92;;
75427;SDS011;64008;55.612;37.698;2023-01-15T06:15:48;12.88;;;3.83;;
75427;SDS011;64008;55.612;37.698;2023-01-15T06:18:14;14.23;;;4.43;;
75427;SDS011;64008;55.612;37.698;2023-01-15T06:20:40;18.52;;;6.15;;
75427;SDS011;64008;55.612;37.698;2023-01-15T06:23:06;11.38;;;3.85;;
75427;SDS011;64008;55.612;37.698;2023-01-15T06:25:33;13.75;;;5.20;;
75427;SDS011;64008;55.612;37.698;2023-01-15T06:28:01;11.07;;;4.15;;
75427;SDS011;64008;55.612;37.698;2023-01-15T06:30:30;14.60;;;4.35;;
75427;SDS011;64008;55.612;37.698;2023-01-15T06:32:56;11.77;;;4.53;;
75427;SDS011;64008;55.612;37.698;2023-01-15T06:35:21;18.02;;;4.57;;
75427;SDS011;64008;55.612;37.698;2023-01-15T06:37:50;12.20;;;4.45;;
75427;SDS011;64008;55.612;37.698;2023-01-15T06:40:16;14.20;;;5.00;;
75427;SDS011;64008;55.612;37.698;2023-01-15T06:42:42;13.38;;;4.32;;
75427;SDS011;64008;55.612;37.698;2023-01-15T06:45:26;12.52;;;4.50;;
75427;SDS011;64008;55.612;37.698;2023-01-15T06:48:12;22.20;;;4.43;;
75427;SDS011;64008;55.612;37.698;2023-01-15T06:50:37;12.10;;;4.80;;
75427;SDS011;64008;55.612;37.698;2023-01-15T06:53:03;14.25;;;5.00;;
75427;SDS011;64008;55.612;37.698;2023-01-15T06:55:28;11.13;;;4.97;;
75427;SDS011;64008;55.612;37.698;2023-01-15T06:57:54;13.18;;;5.13;;
75427;SDS011;64008;55.612;37.698;2023-01-15T07:00:19;6.50;;;2.05;;
75427;SDS011;64008;55.612;37.698;2023-01-15T07:02:45;11.55;;;2.83;;
75427;SDS011;64008;55.612;37.698;2023-01-15T07:05:10;15.20;;;3.00;;
75427;SDS011;64008;55.612;37.698;2023-01-15T07:07:36;8.45;;;3.13;;
75427;SDS011;64008;55.612;37.698;2023-01-15T07:10:01;11.70;;;3.40;;
75427;SDS011;64008;55.612;37.698;2023-01-15T07:12:27;8.52;;;3.10;;
75427;SDS011;64008;55.612;37.698;2023-01-15T07:14:52;15.40;;;4.00;;
75427;SDS011;64008;55.612;37.698;2023-01-15T07:17:18;10.80;;;3.67;;
75427;SDS011;64008;55.612;37.698;2023-01-15T07:19:43;8.80;;;3.63;;
75427;SDS011;64008;55.612;37.698;2023-01-15T07:22:10;11.35;;;4.07;;
75427;SDS011;64008;55.612;37.698;2023-01-15T07:24:36;14.07;;;3.50;;
75427;SDS011;64008;55.612;37.698;2023-01-15T07:27:01;9.82;;;3.22;;
75427;SDS011;64008;55.612;37.698;2023-01-15T07:29:27;12.25;;;3.80;;
75427;SDS011;64008;55.612;37.698;2023-01-15T07:31:52;8.85;;;3.30;;
75427;SDS011;64008;55.612;37.698;2023-01-15T07:34:18;12.43;;;4.32;;
75427;SDS011;64008;55.612;37.698;2023-01-15T07:36:44;17.38;;;3.95;;
75427;SDS011;64008;55.612;37.698;2023-01-15T07:39:10;14.27;;;3.92;;
75427;SDS011;64008;55.612;37.698;2023-01-15T07:41:36;11.57;;;3.58;;
75427;SDS011;64008;55.612;37.698;2023-01-15T07:44:20;9.63;;;2.90;;
75427;SDS011;64008;55.612;37.698;2023-01-15T07:47:08;9.73;;;3.53;;
75427;SDS011;64008;55.612;37.698;2023-01-15T07:52:38;11.40;;;3.70;;
75427;SDS011;64008;55.612;37.698;2023-01-15T07:55:03;10.25;;;3.80;;
75427;SDS011;64008;55.612;37.698;2023-01-15T07:57:29;14.88;;;4.03;;
75427;SDS011;64008;55.612;37.698;2023-01-15T07:59:55;13.38;;;4.22;;
75427;SDS011;64008;55.612;37.698;2023-01-15T08:02:21;14.07;;;4.93;;
75427;SDS011;64008;55.612;37.698;2023-01-15T08:04:46;11.13;;;4.13;;
75427;SDS011;64008;55.612;37.698;2023-01-15T08:07:12;13.00;;;3.72;;
75427;SDS011;64008;55.612;37.698;2023-01-15T08:09:38;11.30;;;4.25;;
75427;SDS011;64008;55.612;37.698;2023-01-15T08:12:04;10.57;;;3.28;;
75427;SDS011;64008;55.612;37.698;2023-01-15T08:14:48;15.80;;;5.38;;
75427;SDS011;64008;55.612;37.698;2023-01-15T08:17:33;27.98;;;11.60;;
75427;SDS011;64008;55.612;37.698;2023-01-15T08:19:59;29.75;;;9.77;;
75427;SDS011;64008;55.612;37.698;2023-01-15T08:22:25;16.45;;;7.00;;
75427;SDS011;64008;55.612;37.698;2023-01-15T08:24:51;19.38;;;6.78;;
75427;SDS011;64008;55.612;37.698;2023-01-15T08:27:17;19.08;;;6.38;;
75427;SDS011;64008;55.612;37.698;2023-01-15T08:29:42;18.67;;;5.85;;
75427;SDS011;64008;55.612;37.698;2023-01-15T08:32:08;14.18;;;5.40;;
75427;SDS011;64008;55.612;37.698;2023-01-15T08:34:33;16.42;;;6.13;;
75427;SDS011;64008;55.612;37.698;2023-01-15T08:36:59;16.33;;;6.28;;
75427;SDS011;64008;55.612;37.698;2023-01-15T08:39:28;16.10;;;5.95;;
75427;SDS011;64008;55.612;37.698;2023-01-15T08:41:56;15.05;;;5.70;;
75427;SDS011;64008;55.612;37.698;2023-01-15T08:44:22;17.45;;;6.45;;
75427;SDS011;64008;55.612;37.698;2023-01-15T08:46:48;16.10;;;5.60;;
75427;SDS011;64008;55.612;37.698;2023-01-15T08:49:17;16.98;;;5.28;;
75427;SDS011;64008;55.612;37.698;2023-01-15T08:51:44;14.88;;;5.28;;
75427;SDS011;64008;55.612;37.698;2023-01-15T08:54:11;15.40;;;5.90;;
75427;SDS011;64008;55.612;37.698;2023-01-15T08:56:37;11.85;;;4.93;;
75427;SDS011;64008;55.612;37.698;2023-01-15T08:59:03;13.75;;;4.65;;
75427;SDS011;64008;55.612;37.698;2023-01-15T09:01:30;13.45;;;4.65;;
75427;SDS011;64008;55.612;37.698;2023-01-15T09:03:55;13.57;;;5.00;;
75427;SDS011;64008;55.612;37.698;2023-01-15T09:06:22;11.68;;;4.60;;
75427;SDS011;64008;55.612;37.698;2023-01-15T09:08:47;12.15;;;4.55;;
75427;SDS011;64008;55.612;37.698;2023-01-15T09:11:13;11.00;;;4.72;;
75427;SDS011;64008;55.612;37.698;2023-01-15T09:13:38;15.40;;;5.35;;
75427;SDS011;64008;55.612;37.698;2023-01-15T09:16:04;16.33;;;4.65;;
75427;SDS011;64008;55.612;37.698;2023-01-15T09:20:57;15.82;;;4.38;;
75427;SDS011;64008;55.612;37.698;2023-01-15T09:23:23;13.27;;;4.22;;
75427;SDS011;64008;55.612;37.698;2023-01-15T09:28:22;12.48;;;4.53;;
75427;SDS011;64008;55.612;37.698;2023-01-15T09:30:48;11.88;;;3.70;;
75427;SDS011;64008;55.612;37.698;2023-01-15T09:33:14;18.00;;;4.35;;
75427;SDS011;64008;55.612;37.698;2023-01-15T09:35:41;14.32;;;4.43;;
75427;SDS011;64008;55.612;37.698;2023-01-15T09:38:11;14.93;;;5.40;;
75427;SDS011;64008;55.612;37.698;2023-01-15T09:40:53;18.67;;;4.47;;
75427;SDS011;64008;55.612;37.698;2023-01-15T09:51:21;10.85;;;4.30;;
75427;SDS011;64008;55.612;37.698;2023-01-15T09:56:57;10.82;;;3.95;;
75427;SDS011;64008;55.612;37.698;2023-01-15T10:01:59;12.02;;;3.95;;
75427;SDS011;64008;55.612;37.698;2023-01-15T10:10:19;9.27;;;4.10;;
75427;SDS011;64008;55.612;37.698;2023-01-15T10:12:48;10.68;;;4.10;;
75427;SDS011;64008;55.612;37.698;2023-01-15T10:15:21;14.63;;;4.18;;
75427;SDS011;64008;55.612;37.698;2023-01-15T10:17:52;9.20;;;3.35;;
75427;SDS011;64008;55.612;37.698;2023-01-15T10:20:38;11.63;;;3.33;;
75427;SDS011;64008;55.612;37.698;2023-01-15T10:37:39;8.65;;;3.53;;
75427;SDS011;64008;55.612;37.698;2023-01-15T10:43:08;10.23;;;3.58;;
75427;SDS011;64008;55.612;37.698;2023-01-15T10:45:55;8.25;;;2.58;;
75427;SDS011;64008;55.612;37.698;2023-01-15T10:50:59;7.95;;;3.30;;
75427;SDS011;64008;55.612;37.698;2023-01-15T10:53:40;8.85;;;3.58;;
75427;SDS011;64008;55.612;37.698;2023-01-15T11:01:25;12.23;;;3.38;;
75427;SDS011;64008;55.612;37.698;2023-01-15T11:03:51;8.90;;;3.15;;
75427;SDS011;64008;55.612;37.698;2023-01-15T11:06:19;11.65;;;3.47;;
75427;SDS011;64008;55.612;37.698;2023-01-15T11:08:48;11.95;;;2.92;;
75427;SDS011;64008;55.612;37.698;2023-01-15T11:17:15;10.25;;;3.30;;
75427;SDS011;64008;55.612;37.698;2023-01-15T11:19:59;12.07;;;3.67;;
75427;SDS011;64008;55.612;37.698;2023-01-15T11:22:25;8.75;;;3.35;;
75427;SDS011;64008;55.612;37.698;2023-01-15T11:24:53;11.38;;;3.38;;
75427;SDS011;64008;55.612;37.698;2023-01-15T11:27:23;7.95;;;2.95;;
75427;SDS011;64008;55.612;37.698;2023-01-15T11:29:54;9.77;;;2.88;;
75427;SDS011;64008;55.612;37.698;2023-01-15T11:34:57;9.57;;;3.13;;
75427;SDS011;64008;55.612;37.698;2023-01-15T11:37:25;10.80;;;3.42;;
75427;SDS011;64008;55.612;37.698;2023-01-15T11:39:55;11.55;;;3.35;;
75427;SDS011;64008;55.612;37.698;2023-01-15T11:42:31;14.00;;;3.95;;
75427;SDS011;64008;55.612;37.698;2023-01-15T11:45:17;10.60;;;3.15;;
75427;SDS011;64008;55.612;37.698;2023-01-15T11:48:13;9.45;;;3.50;;
75427;SDS011;64008;55.612;37.698;2023-01-15T11:51:01;15.93;;;3.60;;
75427;SDS011;64008;55.612;37.698;2023-01-15T11:53:32;12.18;;;3.28;;
75427;SDS011;64008;55.612;37.698;2023-01-15T11:56:08;11.93;;;3.25;;
75427;SDS011;64008;55.612;37.698;2023-01-15T11:58:40;10.32;;;3.28;;
75427;SDS011;64008;55.612;37.698;2023-01-15T12:01:16;10.38;;;3.35;;
75427;SDS011;64008;55.612;37.698;2023-01-15T12:03:58;9.32;;;2.80;;
75427;SDS011;64008;55.612;37.698;2023-01-15T12:06:25;6.65;;;2.60;;
75427;SDS011;64008;55.612;37.698;2023-01-15T12:08:55;10.32;;;2.78;;
75427;SDS011;64008;55.612;37.698;2023-01-15T12:12:14;9.68;;;2.95;;
75427;SDS011;64008;55.612;37.698;2023-01-15T12:26:32;22.15;;;8.10;;
75427;SDS011;64008;55.612;37.698;2023-01-15T12:31:56;7.60;;;2.90;;
75427;SDS011;64008;55.612;37.698;2023-01-15T12:34:41;10.30;;;2.47;;
75427;SDS011;64008;55.612;37.698;2023-01-15T12:39:54;8.30;;;2.70;;
75427;SDS011;64008;55.612;37.698;2023-01-15T12:42:22;7.32;;;2.47;;
75427;SDS011;64008;55.612;37.698;2023-01-15T12:45:15;10.85;;;2.88;;
75427;SDS011;64008;55.612;37.698;2023-01-15T12:52:47;10.43;;;2.90;;
75427;SDS011;64008;55.612;37.698;2023-01-15T12:55:20;7.22;;;2.88;;
75427;SDS011;64008;55.612;37.698;2023-01-15T12:57:52;8.75;;;2.85;;
75427;SDS011;64008;55.612;37.698;2023-01-15T13:00:28;9.05;;;2.70;;
75427;SDS011;64008;55.612;37.698;2023-01-15T13:03:23;9.40;;;2.85;;
75427;SDS011;64008;55.612;37.698;2023-01-15T13:05:54;16.10;;;5.40;;
75427;SDS011;64008;55.612;37.698;2023-01-15T13:08:28;7.40;;;3.42;;
75427;SDS011;64008;55.612;37.698;2023-01-15T13:11:03;8.02;;;2.67;;
75427;SDS011;64008;55.612;37.698;2023-01-15T13:13:32;9.80;;;2.85;;
75427;SDS011;64008;55.612;37.698;2023-01-15T13:16:20;9.43;;;2.83;;
75427;SDS011;64008;55.612;37.698;2023-01-15T13:18:52;8.63;;;2.90;;
75427;SDS011;64008;55.612;37.698;2023-01-15T13:21:33;9.00;;;2.58;;
75427;SDS011;64008;55.612;37.698;2023-01-15T13:34:52;8.98;;;2.92;;
75427;SDS011;64008;55.612;37.698;2023-01-15T13:37:30;8.02;;;3.13;;
75427;SDS011;64008;55.612;37.698;2023-01-15T13:40:20;9.73;;;3.10;;
75427;SDS011;64008;55.612;37.698;2023-01-15T13:42:48;9.35;;;3.28;;
75427;SDS011;64008;55.612;37.698;2023-01-15T13:47:42;11.57;;;3.50;;
75427;SDS011;64008;55.612;37.698;2023-01-15T13:50:32;11.10;;;3.42;;
75427;SDS011;64008;55.612;37.698;2023-01-15T13:53:02;9.30;;;3.20;;
75427;SDS011;64008;55.612;37.698;2023-01-15T13:55:38;7.70;;;3.03;;
75427;SDS011;64008;55.612;37.698;2023-01-15T13:58:19;9.38;;;3.78;;
75427;SDS011;64008;55.612;37.698;2023-01-15T14:00:59;9.02;;;3.50;;
75427;SDS011;64008;55.612;37.698;2023-01-15T14:04:02;8.00;;;3.25;;
75427;SDS011;64008;55.612;37.698;2023-01-15T14:09:13;10.15;;;3.35;;
75427;SDS011;64008;55.612;37.698;2023-01-15T14:17:34;9.48;;;3.10;;
75427;SDS011;64008;55.612;37.698;2023-01-15T14:34:24;12.13;;;5.00;;
75427;SDS011;64008;55.612;37.698;2023-01-15T14:37:00;11.98;;;4.35;;
75427;SDS011;64008;55.612;37.698;2023-01-15T14:50:28;11.57;;;3.65;;
75427;SDS011;64008;55.612;37.698;2023-01-15T14:53:02;9.82;;;4.38;;
75427;SDS011;64008;55.612;37.698;2023-01-15T14:55:40;8.77;;;3.88;;
75427;SDS011;64008;55.612;37.698;2023-01-15T15:04:31;7.28;;;3.10;;
75427;SDS011;64008;55.612;37.698;2023-01-15T15:07:16;8.70;;;3.20;;
75427;SDS011;64008;55.612;37.698;2023-01-15T15:12:48;9.25;;;2.90;;
75427;SDS011;64008;55.612;37.698;2023-01-15T15:28:53;9.25;;;3.30;;
75427;SDS011;64008;55.612;37.698;2023-01-15T15:31:25;8.98;;;2.78;;
75427;SDS011;64008;55.612;37.698;2023-01-15T15:33:53;9.10;;;3.05;;
75427;SDS011;64008;55.612;37.698;2023-01-15T15:36:20;10.65;;;3.20;;
75427;SDS011;64008;55.612;37.698;2023-01-15T15:41:41;9.07;;;2.85;;
75427;SDS011;64008;55.612;37.698;2023-01-15T15:47:36;10.68;;;3.28;;
75427;SDS011;64008;55.612;37.698;2023-01-15T15:50:22;11.40;;;2.80;;
75427;SDS011;64008;55.612;37.698;2023-01-15T15:52:50;8.32;;;3.35;;
75427;SDS011;64008;55.612;37.698;2023-01-15T15:55:17;8.55;;;3.13;;
75427;SDS011;64008;55.612;37.698;2023-01-15T15:57:44;10.68;;;3.90;;
75427;SDS011;64008;55.612;37.698;2023-01-15T16:00:22;12.50;;;3.30;;
75427;SDS011;64008;55.612;37.698;2023-01-15T16:02:58;7.32;;;2.97;;
75427;SDS011;64008;55.612;37.698;2023-01-15T16:05:29;8.40;;;3.15;;
75427;SDS011;64008;55.612;37.698;2023-01-15T16:08:06;10.05;;;3.40;;
75427;SDS011;64008;55.612;37.698;2023-01-15T16:10:53;6.40;;;2.85;;
75427;SDS011;64008;55.612;37.698;2023-01-15T16:15:55;8.73;;;3.90;;
75427;SDS011;64008;55.612;37.698;2023-01-15T16:21:04;11.13;;;3.75;;
75427;SDS011;64008;55.612;37.698;2023-01-15T16:23:33;9.32;;;3.30;;
75427;SDS011;64008;55.612;37.698;2023-01-15T16:28:37;15.48;;;3.60;;
75427;SDS011;64008;55.612;37.698;2023-01-15T16:31:08;9.43;;;4.00;;
75427;SDS011;64008;55.612;37.698;2023-01-15T16:33:36;9.98;;;3.85;;
75427;SDS011;64008;55.612;37.698;2023-01-15T16:36:02;9.23;;;3.85;;
75427;SDS011;64008;55.612;37.698;2023-01-15T16:38:33;10.32;;;3.70;;
75427;SDS011;64008;55.612;37.698;2023-01-15T16:43:28;9.63;;;3.85;;
75427;SDS011;64008;55.612;37.698;2023-01-15T16:50:49;9.50;;;4.15;;
75427;SDS011;64008;55.612;37.698;2023-01-15T16:53:29;10.60;;;3.53;;
75427;SDS011;64008;55.612;37.698;2023-01-15T16:56:02;11.65;;;4.03;;
75427;SDS011;64008;55.612;37.698;2023-01-15T16:58:37;9.73;;;4.32;;
75427;SDS011;64008;55.612;37.698;2023-01-15T17:01:25;8.95;;;3.17;;
75427;SDS011;64008;55.612;37.698;2023-01-15T17:03:58;10.20;;;3.72;;
75427;SDS011;64008;55.612;37.698;2023-01-15T17:06:25;15.10;;;4.88;;
75427;SDS011;64008;55.612;37.698;2023-01-15T17:08:52;9.30;;;3.67;;
75427;SDS011;64008;55.612;37.698;2023-01-15T17:11:24;12.18;;;4.32;;
75427;SDS011;64008;55.612;37.698;2023-01-15T17:13:50;9.40;;;4.35;;
75427;SDS011;64008;55.612;37.698;2023-01-15T17:16:30;8.93;;;4.13;;
75427;SDS011;64008;55.612;37.698;2023-01-15T17:18:56;12.70;;;4.88;;
75427;SDS011;64008;55.612;37.698;2023-01-15T17:21:22;11.13;;;4.57;;
75427;SDS011;64008;55.612;37.698;2023-01-15T17:23:52;10.75;;;4.28;;
75427;SDS011;64008;55.612;37.698;2023-01-15T17:26:19;11.07;;;4.38;;
75427;SDS011;64008;55.612;37.698;2023-01-15T17:28:47;10.13;;;4.57;;
75427;SDS011;64008;55.612;37.698;2023-01-15T17:31:26;12.68;;;4.82;;
75427;SDS011;64008;55.612;37.698;2023-01-15T17:33:54;8.20;;;3.78;;
75427;SDS011;64008;55.612;37.698;2023-01-15T17:38:46;10.82;;;3.88;;
75427;SDS011;64008;55.612;37.698;2023-01-15T17:41:12;9.80;;;3.92;;
75427;SDS011;64008;55.612;37.698;2023-01-15T17:43:39;13.57;;;4.55;;
75427;SDS011;64008;55.612;37.698;2023-01-15T17:46:04;9.40;;;4.18;;
75427;SDS011;64008;55.612;37.698;2023-01-15T17:48:30;9.50;;;4.07;;
75427;SDS011;64008;55.612;37.698;2023-01-15T17:50:59;11.88;;;3.92;;
75427;SDS011;64008;55.612;37.698;2023-01-15T17:53:26;12.23;;;3.75;;
75427;SDS011;64008;55.612;37.698;2023-01-15T17:55:52;8.23;;;4.13;;
75427;SDS011;64008;55.612;37.698;2023-01-15T17:58:36;9.23;;;3.75;;
75427;SDS011;64008;55.612;37.698;2023-01-15T18:01:20;10.52;;;3.53;;
75427;SDS011;64008;55.612;37.698;2023-01-15T18:04:10;11.25;;;3.75;;
75427;SDS011;64008;55.612;37.698;2023-01-15T18:09:29;11.48;;;3.95;;
75427;SDS011;64008;55.612;37.698;2023-01-15T18:11:54;10.40;;;4.30;;
75427;SDS011;64008;55.612;37.698;2023-01-15T18:14:20;8.95;;;3.97;;
75427;SDS011;64008;55.612;37.698;2023-01-15T18:16:45;12.50;;;3.75;;
75427;SDS011;64008;55.612;37.698;2023-01-15T18:19:11;13.75;;;4.70;;
75427;SDS011;64008;55.612;37.698;2023-01-15T18:21:37;10.68;;;3.85;;